createdAt,value
2022-10-13T00:00:39.066Z,10.51
2022-10-13T00:03:10.764Z,10.52
2022-10-13T00:05:48.047Z,10.45
2022-10-13T00:08:21.798Z,10.55
2022-10-13T00:10:53.132Z,10.55
2022-10-13T00:13:24.463Z,10.53
2022-10-13T00:15:55.910Z,10.53
2022-10-13T00:18:27.174Z,10.53
2022-10-13T00:20:58.437Z,10.46
2022-10-13T00:23:29.867Z,10.49
2022-10-13T00:26:06.938Z,10.38
2022-10-13T00:28:38.783Z,10.45
2022-10-13T00:31:18.244Z,10.41
2022-10-13T00:33:50.162Z,10.38
2022-10-13T00:36:23.409Z,10.32
2022-10-13T00:38:54.822Z,10.24
2022-10-13T00:41:26.737Z,10.14
2022-10-13T00:44:05.245Z,10.15
2022-10-13T00:46:37.190Z,10.05
2022-10-13T00:49:13.194Z,10.08
2022-10-13T00:51:49.323Z,10.04
2022-10-13T00:54:24.518Z,10.00
2022-10-13T00:56:56.459Z,9.96
2022-10-13T00:59:29.178Z,9.92
2022-10-13T01:02:02.165Z,9.87
2022-10-13T01:04:39.667Z,9.75
2022-10-13T01:07:12.736Z,9.69
2022-10-13T01:09:45.062Z,9.61
2022-10-13T01:12:35.241Z,9.54
2022-10-13T01:15:15.731Z,9.46
2022-10-13T01:17:59.050Z,9.36
2022-10-13T01:21:06.268Z,9.35
2022-10-13T01:24:03.732Z,9.28
2022-10-13T01:27:04.502Z,9.21
2022-10-13T01:30:13.146Z,9.14
2022-10-13T01:33:06.502Z,9.09
2022-10-13T01:36:13.311Z,9.02
2022-10-13T01:39:09.136Z,8.95
2022-10-13T01:41:46.522Z,8.86
2022-10-13T01:44:35.837Z,8.77
2022-10-13T01:47:10.284Z,8.71
2022-10-13T01:49:43.376Z,8.64
2022-10-13T01:52:17.772Z,8.58
2022-10-13T01:54:51.439Z,8.52
2022-10-13T01:57:43.042Z,8.48
2022-10-13T02:00:19.844Z,8.45
2022-10-13T02:03:18.718Z,8.48
2022-10-13T02:06:03.118Z,8.48
2022-10-13T02:08:42.916Z,8.46
2022-10-13T02:11:17.503Z,8.42
2022-10-13T02:14:11.876Z,8.41
2022-10-13T02:16:45.291Z,8.38
2022-10-13T02:19:18.854Z,8.29
2022-10-13T02:21:52.061Z,8.32
2022-10-13T02:24:23.494Z,8.28
2022-10-13T02:26:55.977Z,8.24
2022-10-13T02:29:27.350Z,8.27
2022-10-13T02:31:58.801Z,8.32
2022-10-13T02:34:30.434Z,8.31
2022-10-13T02:37:01.706Z,8.32
2022-10-13T02:39:33.838Z,8.32
2022-10-13T02:42:05.499Z,8.31
2022-10-13T02:44:36.855Z,8.30
2022-10-13T02:47:08.197Z,8.23
2022-10-13T02:49:39.442Z,8.32
2022-10-13T02:52:10.738Z,8.35
2022-10-13T02:54:42.125Z,8.37
2022-10-13T02:57:13.413Z,8.41
2022-10-13T02:59:44.924Z,8.42
2022-10-13T03:02:16.721Z,8.36
2022-10-13T03:04:50.721Z,8.44
2022-10-13T03:07:22.193Z,8.35
2022-10-13T03:09:53.454Z,8.38
2022-10-13T03:12:24.752Z,8.33
2022-10-13T03:14:56.018Z,8.30
2022-10-13T03:17:27.468Z,8.27
2022-10-13T03:19:58.754Z,8.24
2022-10-13T03:22:32.397Z,8.23
2022-10-13T03:25:04.342Z,8.16
2022-10-13T03:27:35.999Z,8.26
2022-10-13T03:30:08.278Z,8.31
2022-10-13T03:32:40.626Z,8.37
2022-10-13T03:35:11.911Z,8.47
2022-10-13T03:37:43.443Z,8.56
2022-10-13T03:40:14.893Z,8.52
2022-10-13T03:42:46.196Z,8.68
2022-10-13T03:45:17.479Z,8.74
2022-10-13T03:47:48.813Z,8.79
2022-10-13T03:50:20.130Z,8.84
2022-10-13T03:52:51.552Z,8.90
2022-10-13T03:55:22.838Z,8.90
2022-10-13T03:57:54.130Z,8.96
2022-10-13T04:00:25.430Z,8.98
2022-10-13T04:02:56.768Z,8.98
2022-10-13T04:05:28.031Z,8.89
2022-10-13T04:07:59.284Z,8.99
2022-10-13T04:10:30.605Z,8.98
2022-10-13T04:13:01.960Z,8.95
2022-10-13T04:15:37.817Z,8.97
2022-10-13T04:18:09.134Z,8.96
2022-10-13T04:20:40.602Z,8.96
2022-10-13T04:23:11.994Z,8.88
2022-10-13T04:25:43.255Z,8.91
2022-10-13T04:28:14.680Z,8.90
2022-10-13T04:30:49.405Z,8.87
2022-10-13T04:33:21.114Z,8.85
2022-10-13T04:35:52.414Z,8.84
2022-10-13T04:38:23.999Z,8.81
2022-10-13T04:40:55.259Z,8.82
2022-10-13T04:43:26.520Z,8.83
2022-10-13T04:46:10.216Z,8.80
2022-10-13T04:48:42.153Z,8.83
2022-10-13T04:51:17.147Z,8.82
2022-10-13T04:53:48.586Z,8.82
2022-10-13T04:56:19.883Z,8.77
2022-10-13T04:58:51.223Z,8.82
2022-10-13T05:01:24.374Z,8.80
2022-10-13T05:03:58.593Z,8.77
2022-10-13T05:06:33.229Z,8.85
2022-10-13T05:09:04.510Z,8.87
2022-10-13T05:11:35.796Z,8.89
2022-10-13T05:14:07.083Z,8.93
2022-10-13T05:16:38.381Z,8.95
2022-10-13T05:19:09.651Z,8.99
2022-10-13T05:21:41.324Z,9.02
2022-10-13T05:24:13.691Z,9.04
2022-10-13T05:26:45.070Z,9.09
2022-10-13T05:29:17.465Z,9.06
2022-10-13T05:31:48.783Z,9.15
2022-10-13T05:34:20.059Z,9.10
2022-10-13T05:36:51.340Z,9.12
2022-10-13T05:39:22.677Z,9.25
2022-10-13T05:41:53.956Z,9.30
2022-10-13T05:44:25.997Z,9.33
2022-10-13T05:46:57.439Z,9.38
2022-10-13T05:49:29.074Z,9.42
2022-10-13T05:52:03.764Z,9.46
2022-10-13T05:54:38.640Z,9.50
2022-10-13T05:57:17.600Z,9.56
2022-10-13T05:59:55.322Z,9.52
2022-10-13T06:02:34.490Z,9.66
2022-10-13T06:05:12.023Z,9.72
2022-10-13T06:07:45.695Z,9.79
2022-10-13T06:10:17.580Z,9.84
2022-10-13T06:12:48.837Z,9.90
2022-10-13T06:15:23.285Z,9.95
2022-10-13T06:17:57.119Z,9.99
2022-10-13T06:20:28.450Z,9.97
2022-10-13T06:22:59.718Z,10.08
2022-10-13T06:25:31.171Z,10.06
2022-10-13T06:28:02.689Z,10.11
2022-10-13T06:30:33.951Z,10.23
2022-10-13T06:33:05.208Z,10.23
2022-10-13T06:35:36.522Z,10.33
2022-10-13T06:38:09.169Z,10.38
2022-10-13T06:40:40.416Z,10.44
2022-10-13T06:43:11.781Z,10.48
2022-10-13T06:45:43.098Z,10.45
2022-10-13T06:48:14.407Z,10.61
2022-10-13T06:50:45.724Z,10.68
2022-10-13T06:53:17.029Z,10.71
2022-10-13T06:55:52.364Z,10.80
2022-10-13T06:58:23.907Z,10.88
2022-10-13T07:00:55.320Z,10.93
2022-10-13T07:03:26.648Z,10.91
2022-10-13T07:06:05.898Z,11.05
2022-10-13T07:08:37.200Z,11.13
2022-10-13T07:11:15.968Z,11.18
2022-10-13T07:13:47.875Z,11.22
2022-10-13T07:16:19.241Z,11.30
2022-10-13T07:18:50.801Z,11.27
2022-10-13T07:21:22.773Z,11.37
2022-10-13T07:23:54.064Z,11.40
2022-10-13T07:26:25.389Z,11.46
2022-10-13T07:28:56.742Z,11.46
2022-10-13T07:31:28.193Z,11.52
2022-10-13T07:33:59.823Z,11.64
2022-10-13T07:36:35.261Z,11.72
2022-10-13T07:39:07.006Z,11.78
2022-10-13T07:41:38.355Z,11.84
2022-10-13T07:44:09.679Z,11.88
2022-10-13T07:46:40.934Z,11.95
2022-10-13T07:49:15.309Z,12.00
2022-10-13T07:51:47.590Z,12.09
2022-10-13T07:54:22.555Z,12.15
2022-10-13T07:56:56.682Z,12.21
2022-10-13T07:59:27.970Z,12.28
2022-10-13T08:02:00.591Z,12.26
2022-10-13T08:04:33.433Z,12.42
2022-10-13T08:07:06.045Z,12.49
2022-10-13T08:09:37.334Z,12.47
2022-10-13T08:12:08.600Z,12.65
2022-10-13T08:14:40.023Z,12.73
2022-10-13T08:17:11.431Z,12.81
2022-10-13T08:19:42.683Z,12.88
2022-10-13T08:22:14.302Z,12.92
2022-10-13T08:24:45.561Z,13.01
2022-10-13T08:27:22.802Z,13.09
2022-10-13T08:29:54.785Z,13.21
2022-10-13T08:32:26.060Z,13.31
2022-10-13T08:34:57.321Z,13.28
2022-10-13T08:37:29.166Z,13.47
2022-10-13T08:40:00.441Z,13.57
2022-10-13T08:42:31.722Z,13.67
2022-10-13T08:45:40.321Z,13.77
2022-10-13T08:48:07.426Z,13.87
2022-10-13T08:50:42.605Z,13.96
2022-10-13T08:53:23.189Z,14.10
2022-10-13T08:55:56.824Z,14.24
2022-10-13T08:58:31.371Z,14.38
2022-10-13T09:01:08.648Z,14.51
2022-10-13T09:04:26.378Z,14.69
2022-10-13T09:07:13.522Z,14.86
2022-10-13T09:09:44.938Z,14.96
2022-10-13T09:12:16.302Z,15.02
2022-10-13T09:15:17.874Z,15.08
2022-10-13T09:18:09.071Z,15.14
2022-10-13T09:20:41.047Z,15.22
2022-10-13T09:23:21.380Z,15.32
2022-10-13T09:25:54.062Z,15.49
2022-10-13T09:28:31.211Z,15.67
2022-10-13T09:31:27.381Z,15.75
2022-10-13T09:34:12.562Z,15.79
2022-10-13T09:37:03.002Z,15.85
2022-10-13T09:39:34.278Z,15.90
2022-10-13T09:42:22.256Z,15.93
2022-10-13T09:45:00.224Z,16.05
2022-10-13T09:47:33.075Z,16.23
2022-10-13T09:50:20.406Z,16.38
2022-10-13T09:52:52.356Z,16.46
2022-10-13T09:55:35.658Z,16.55
2022-10-13T09:58:15.658Z,16.61
2022-10-13T10:00:51.199Z,16.68
2022-10-13T10:03:27.319Z,16.79
2022-10-13T10:06:00.422Z,16.86
2022-10-13T10:09:04.930Z,16.93
2022-10-13T10:11:42.359Z,16.98
2022-10-13T10:14:28.752Z,17.07
2022-10-13T10:17:31.553Z,17.11
2022-10-13T10:20:21.527Z,17.35
2022-10-13T10:23:03.816Z,17.48
2022-10-13T10:26:01.155Z,17.59
2022-10-13T10:28:43.176Z,17.72
2022-10-13T10:31:27.222Z,17.85
2022-10-13T10:34:15.381Z,17.98
2022-10-13T10:37:21.267Z,18.07
2022-10-13T10:40:16.693Z,18.11
2022-10-13T10:43:15.078Z,18.12
2022-10-13T10:45:47.653Z,18.19
2022-10-13T10:48:40.281Z,18.19
2022-10-13T10:51:12.805Z,18.22
2022-10-13T10:53:56.438Z,18.26
2022-10-13T10:56:34.810Z,18.34
2022-10-13T10:59:21.697Z,18.32
2022-10-13T11:02:13.464Z,18.36
2022-10-13T11:04:47.263Z,18.32
2022-10-13T11:07:24.602Z,18.29
2022-10-13T11:09:57.168Z,18.27
2022-10-13T11:12:53.242Z,18.25
2022-10-13T11:15:27.317Z,18.21
2022-10-13T11:17:58.593Z,18.23
2022-10-13T11:20:35.683Z,18.33
2022-10-13T11:23:12.816Z,18.32
2022-10-13T11:25:46.338Z,18.55
2022-10-13T11:28:20.639Z,18.65
2022-10-13T11:30:55.279Z,18.75
2022-10-13T11:33:38.486Z,18.89
2022-10-13T11:36:47.836Z,19.14
2022-10-13T11:39:25.488Z,19.30
2022-10-13T11:42:29.007Z,19.24
2022-10-13T11:45:04.060Z,19.37
2022-10-13T11:47:56.759Z,19.37
2022-10-13T11:50:52.357Z,19.49
2022-10-13T11:53:32.611Z,19.58
2022-10-13T11:56:04.019Z,19.68
2022-10-13T11:58:42.368Z,19.75
2022-10-13T12:01:16.234Z,19.83
2022-10-13T12:03:48.003Z,19.83
2022-10-13T12:06:33.276Z,19.76
2022-10-13T12:09:17.411Z,19.63
2022-10-13T12:11:57.402Z,19.40
2022-10-13T12:14:40.900Z,19.25
2022-10-13T12:17:27.997Z,19.15
2022-10-13T12:20:03.873Z,19.13
2022-10-13T12:22:40.052Z,19.16
2022-10-13T12:25:19.984Z,19.24
2022-10-13T12:27:55.018Z,19.34
2022-10-13T12:30:36.987Z,19.41
2022-10-13T12:33:32.638Z,19.40
2022-10-13T12:36:22.501Z,19.44
2022-10-13T12:38:57.537Z,19.45
2022-10-13T12:41:31.891Z,19.44
2022-10-13T12:44:06.745Z,19.47
2022-10-13T12:46:47.208Z,19.47
2022-10-13T12:49:23.914Z,19.41
2022-10-13T12:52:11.112Z,19.40
2022-10-13T12:54:52.021Z,19.42
2022-10-13T12:57:37.381Z,19.40
2022-10-13T13:00:29.431Z,19.30
2022-10-13T13:03:06.465Z,19.12
2022-10-13T13:05:49.209Z,19.06
2022-10-13T13:08:25.734Z,18.98
2022-10-13T13:11:03.154Z,19.03
2022-10-13T13:13:34.683Z,19.11
2022-10-13T13:16:20.974Z,19.21
2022-10-13T13:18:52.399Z,19.32
2022-10-13T13:21:23.709Z,19.44
2022-10-13T13:23:54.955Z,19.56
2022-10-13T13:26:26.376Z,19.66
2022-10-13T13:28:57.646Z,19.72
2022-10-13T13:31:28.948Z,19.71
2022-10-13T13:34:00.202Z,19.65
2022-10-13T13:36:31.720Z,19.59
2022-10-13T13:39:03.208Z,19.56
2022-10-13T13:41:34.542Z,19.53
2022-10-13T13:44:05.800Z,19.45
2022-10-13T13:46:37.410Z,19.42
2022-10-13T13:49:10.699Z,19.32
2022-10-13T13:51:41.995Z,19.18
2022-10-13T13:54:13.503Z,18.98
2022-10-13T13:56:44.954Z,18.91
2022-10-13T13:59:16.259Z,18.88
2022-10-13T14:01:47.624Z,18.80
2022-10-13T14:04:18.939Z,18.70
2022-10-13T14:06:51.362Z,18.67
2022-10-13T14:09:22.662Z,18.64
2022-10-13T14:11:53.959Z,18.60
2022-10-13T14:14:25.298Z,18.46
2022-10-13T14:16:56.555Z,18.44
2022-10-13T14:19:27.813Z,18.47
2022-10-13T14:22:04.660Z,18.51
2022-10-13T14:24:38.411Z,18.54
2022-10-13T14:27:09.681Z,18.59
2022-10-13T14:29:41.111Z,18.66
2022-10-13T14:32:12.576Z,18.72
2022-10-13T14:34:43.877Z,18.83
2022-10-13T14:37:15.245Z,18.82
2022-10-13T14:39:46.502Z,18.93
2022-10-13T14:42:17.802Z,18.94
2022-10-13T14:44:49.210Z,18.86
2022-10-13T14:47:20.631Z,18.95
2022-10-13T14:49:52.126Z,18.97
2022-10-13T14:52:23.510Z,18.97
2022-10-13T14:54:54.831Z,18.92
2022-10-13T14:57:26.172Z,18.84
2022-10-13T15:00:01.728Z,18.82
2022-10-13T15:02:33.544Z,18.76
2022-10-13T15:05:05.305Z,18.69
2022-10-13T15:07:40.815Z,18.57
2022-10-13T15:10:12.411Z,18.41
2022-10-13T15:12:43.798Z,18.39
2022-10-13T15:15:15.273Z,18.25
2022-10-13T15:17:46.525Z,18.34
2022-10-13T15:20:17.883Z,18.37
2022-10-13T15:22:49.190Z,18.39
2022-10-13T15:25:20.485Z,18.39
2022-10-13T15:27:51.833Z,18.38
2022-10-13T15:30:23.112Z,18.37
2022-10-13T15:32:54.404Z,18.36
2022-10-13T15:35:29.767Z,18.32
2022-10-13T15:38:01.292Z,18.28
2022-10-13T15:40:33.623Z,18.25
2022-10-13T15:43:06.250Z,18.22
2022-10-13T15:45:38.052Z,18.16
2022-10-13T15:48:12.262Z,18.11
2022-10-13T15:50:43.537Z,18.04
2022-10-13T15:53:14.811Z,17.97
2022-10-13T15:55:47.753Z,17.89
2022-10-13T15:58:19.121Z,17.80
2022-10-13T16:00:50.448Z,17.74
2022-10-13T16:03:21.713Z,17.67
2022-10-13T16:05:52.961Z,17.60
2022-10-13T16:08:24.209Z,17.55
2022-10-13T16:10:55.498Z,17.42
2022-10-13T16:13:26.809Z,17.45
2022-10-13T16:16:01.557Z,17.39
2022-10-13T16:18:35.697Z,17.26
2022-10-13T16:21:17.287Z,17.27
2022-10-13T16:23:49.746Z,17.21
2022-10-13T16:26:21.375Z,17.14
2022-10-13T16:28:56.742Z,17.09
2022-10-13T16:31:28.125Z,17.05
2022-10-13T16:33:59.462Z,16.95
2022-10-13T16:36:31.279Z,16.97
2022-10-13T16:39:02.567Z,16.93
2022-10-13T16:41:33.919Z,16.90
2022-10-13T16:44:05.378Z,16.80
2022-10-13T16:46:36.737Z,16.83
2022-10-13T16:49:07.995Z,16.78
2022-10-13T16:51:39.305Z,16.76
2022-10-13T16:54:10.610Z,16.73
2022-10-13T16:56:41.865Z,16.69
2022-10-13T16:59:13.135Z,16.65
2022-10-13T17:01:45.149Z,16.53
2022-10-13T17:04:21.870Z,16.55
2022-10-13T17:06:53.610Z,16.47
2022-10-13T17:09:24.951Z,16.39
2022-10-13T17:11:56.214Z,16.31
2022-10-13T17:14:27.517Z,16.27
2022-10-13T17:16:58.775Z,16.17
2022-10-13T17:19:30.055Z,16.23
2022-10-13T17:22:01.560Z,16.18
2022-10-13T17:24:33.114Z,16.08
2022-10-13T17:27:04.382Z,16.14
2022-10-13T17:29:35.710Z,16.13
2022-10-13T17:32:07.112Z,16.02
2022-10-13T17:34:39.348Z,16.03
2022-10-13T17:37:10.700Z,15.94
2022-10-13T17:39:41.971Z,15.86
2022-10-13T17:42:13.234Z,15.80
2022-10-13T17:44:44.509Z,15.75
2022-10-13T17:47:15.795Z,15.70
2022-10-13T17:49:47.069Z,15.66
2022-10-13T17:52:18.408Z,15.62
2022-10-13T17:54:49.760Z,15.58
2022-10-13T17:57:21.762Z,15.52
2022-10-13T17:59:53.454Z,15.50
2022-10-13T18:02:24.755Z,15.48
2022-10-13T18:04:56.067Z,15.47
2022-10-13T18:07:27.358Z,15.44
2022-10-13T18:09:58.663Z,15.41
2022-10-13T18:12:29.962Z,15.38
2022-10-13T18:15:01.358Z,15.30
2022-10-13T18:17:32.684Z,15.29
2022-10-13T18:20:04.419Z,15.25
2022-10-13T18:22:35.706Z,15.20
2022-10-13T18:25:07.383Z,15.17
2022-10-13T18:27:38.630Z,15.17
2022-10-13T18:30:10.497Z,15.12
2022-10-13T18:32:41.859Z,15.12
2022-10-13T18:35:13.162Z,15.05
2022-10-13T18:37:49.779Z,15.09
2022-10-13T18:40:21.079Z,15.11
2022-10-13T18:42:54.874Z,15.11
2022-10-13T18:45:26.309Z,15.12
2022-10-13T18:47:57.580Z,15.12
2022-10-13T18:50:28.900Z,15.13
2022-10-13T18:53:00.154Z,15.15
2022-10-13T18:55:31.541Z,15.12
2022-10-13T18:58:02.960Z,15.18
2022-10-13T19:00:34.628Z,15.19
2022-10-13T19:03:06.777Z,15.19
2022-10-13T19:05:44.983Z,15.19
2022-10-13T19:08:16.243Z,15.17
2022-10-13T19:10:47.981Z,15.16
2022-10-13T19:13:19.384Z,15.16
2022-10-13T19:15:50.690Z,15.16
2022-10-13T19:18:23.069Z,15.14
2022-10-13T19:20:54.630Z,15.12
2022-10-13T19:23:26.012Z,15.12
2022-10-13T19:25:57.378Z,15.08
2022-10-13T19:28:28.702Z,15.09
2022-10-13T19:31:15.343Z,15.08
2022-10-13T19:33:47.175Z,15.07
2022-10-13T19:36:31.638Z,15.01
2022-10-13T19:39:06.047Z,14.94
2022-10-13T19:41:37.378Z,14.98
2022-10-13T19:44:08.681Z,14.98
2022-10-13T19:46:42.198Z,14.99
2022-10-13T19:49:23.305Z,14.97
2022-10-13T19:51:55.929Z,14.94
2022-10-13T19:54:32.953Z,14.95
2022-10-13T19:57:05.269Z,14.94
2022-10-13T19:59:37.297Z,14.91
2022-10-13T20:02:10.615Z,14.89
2022-10-13T20:04:41.960Z,14.82
2022-10-13T20:07:13.295Z,14.78
2022-10-13T20:09:45.659Z,14.71
2022-10-13T20:12:17.195Z,14.63
2022-10-13T20:14:49.077Z,14.56
2022-10-13T20:17:20.606Z,14.51
2022-10-13T20:19:52.557Z,14.48
2022-10-13T20:22:23.858Z,14.48
2022-10-13T20:24:55.141Z,14.49
2022-10-13T20:27:26.396Z,14.48
2022-10-13T20:29:57.720Z,14.46
2022-10-13T20:32:29.114Z,14.48
2022-10-13T20:35:00.390Z,14.51
2022-10-13T20:37:31.685Z,14.54
2022-10-13T20:40:03.463Z,14.59
2022-10-13T20:42:34.777Z,14.57
2022-10-13T20:45:06.535Z,14.67
2022-10-13T20:47:37.824Z,14.68
2022-10-13T20:50:09.402Z,14.74
2022-10-13T20:52:40.711Z,14.77
2022-10-13T20:55:12.058Z,14.73
2022-10-13T20:57:43.301Z,14.80
2022-10-13T21:00:14.745Z,14.84
2022-10-13T21:02:47.454Z,14.85
2022-10-13T21:05:18.741Z,14.83
2022-10-13T21:07:50.020Z,14.90
2022-10-13T21:10:21.382Z,14.90
2022-10-13T21:12:52.633Z,14.86
2022-10-13T21:15:23.992Z,14.83
2022-10-13T21:17:55.262Z,14.80
2022-10-13T21:20:26.575Z,14.77
2022-10-13T21:22:58.683Z,14.73
2022-10-13T21:25:30.986Z,14.75
2022-10-13T21:28:04.912Z,14.76
2022-10-13T21:30:36.719Z,14.77
2022-10-13T21:33:07.986Z,14.67
2022-10-13T21:35:39.460Z,14.71
2022-10-13T21:38:10.727Z,14.69
2022-10-13T21:40:41.991Z,14.64
2022-10-13T21:43:13.253Z,14.57
2022-10-13T21:45:44.572Z,14.55
2022-10-13T21:48:15.859Z,14.53
2022-10-13T21:50:47.138Z,14.53
2022-10-13T21:53:18.512Z,14.44
2022-10-13T21:55:49.778Z,14.54
2022-10-13T21:58:21.024Z,14.53
2022-10-13T22:00:52.413Z,14.53
2022-10-13T22:03:23.786Z,14.54
2022-10-13T22:05:55.125Z,14.47
2022-10-13T22:08:37.867Z,14.57
2022-10-13T22:11:12.109Z,14.47
2022-10-13T22:13:43.555Z,14.56
2022-10-13T22:16:20.167Z,14.48
2022-10-13T22:18:52.908Z,14.55
2022-10-13T22:21:27.667Z,14.54
2022-10-13T22:24:02.750Z,14.53
2022-10-13T22:26:36.786Z,14.55
2022-10-13T22:29:09.726Z,14.52
2022-10-13T22:31:41.120Z,14.52
2022-10-13T22:34:13.960Z,14.54
2022-10-13T22:36:45.595Z,14.47
2022-10-13T22:39:17.053Z,14.59
2022-10-13T22:41:48.320Z,14.58
2022-10-13T22:44:19.592Z,14.59
2022-10-13T22:46:50.876Z,14.60
2022-10-13T22:49:22.138Z,14.61
2022-10-13T22:51:53.475Z,14.58
2022-10-13T22:54:24.869Z,14.55
2022-10-13T22:56:56.204Z,14.53
2022-10-13T22:59:27.535Z,14.53
2022-10-13T23:01:58.868Z,14.37
2022-10-13T23:04:30.119Z,14.51
2022-10-13T23:07:01.378Z,14.49
2022-10-13T23:09:32.654Z,14.49
2022-10-13T23:12:03.966Z,14.51
2022-10-13T23:14:35.216Z,14.52
2022-10-13T23:17:06.505Z,14.53
2022-10-13T23:19:37.870Z,14.47
2022-10-13T23:22:09.138Z,14.54
2022-10-13T23:24:40.414Z,14.52
2022-10-13T23:27:11.687Z,14.54
2022-10-13T23:29:42.951Z,14.50
2022-10-13T23:32:14.291Z,14.47
2022-10-13T23:34:45.850Z,14.54
2022-10-13T23:37:17.637Z,14.55
2022-10-13T23:39:48.885Z,14.58
2022-10-13T23:42:20.187Z,14.59
2022-10-13T23:44:51.542Z,14.59
2022-10-13T23:47:23.478Z,14.59
2022-10-13T23:49:55.012Z,14.59
2022-10-13T23:52:26.435Z,14.60
2022-10-13T23:54:57.692Z,14.59
2022-10-13T23:57:30.064Z,14.60
